RSC53ET GCXO-GCLP
Flight info
| Callsign | RSC53ET |
|---|---|
| Flight time | 0h 23m |
| Altitude | 9000 |
| Route | LALTO |
| Aircraft | AT76/M-SDFGRY/LB1 |
Departure
| Time | 2026-04-23 18:12 |
|---|---|
| Airport | Tenerife Norte-Ciudad de La Laguna Airport (GCXO) |
Arrival
| Time | 2026-04-23 18:35 |
|---|---|
| Airport | Gran Canaria Airport (GCLP) |
| Time | Latitude | Longitude | Altitude | Speed | Heading |
|---|---|---|---|---|---|
| 2026-04-23 17:55 | 28.48681 | -16.34663 | 2067 ft | 0 kts | 21° |
| 2026-04-23 18:03 | 28.48680 | -16.34664 | 2067 ft | 1 kts | 20° |
| 2026-04-23 18:04 | 28.48672 | -16.34667 | 2068 ft | 1 kts | 22° |
| 2026-04-23 18:04 | 28.48667 | -16.34670 | 2068 ft | 1 kts | 23° |
| 2026-04-23 18:04 | 28.48661 | -16.34673 | 2068 ft | 2 kts | 23° |
| 2026-04-23 18:04 | 28.48636 | -16.34685 | 2068 ft | 5 kts | 23° |
| 2026-04-23 18:05 | 28.48598 | -16.34704 | 2070 ft | 6 kts | 23° |
| 2026-04-23 18:05 | 28.48563 | -16.34720 | 2072 ft | 5 kts | 20° |
| 2026-04-23 18:05 | 28.48548 | -16.34727 | 2072 ft | 0 kts | 23° |
| 2026-04-23 18:05 | 28.48565 | -16.34706 | 2071 ft | 6 kts | 76° |
| 2026-04-23 18:06 | 28.48540 | -16.34631 | 2067 ft | 14 kts | 111° |
| 2026-04-23 18:06 | 28.48502 | -16.34513 | 2060 ft | 17 kts | 109° |
| 2026-04-23 18:06 | 28.48460 | -16.34382 | 2055 ft | 18 kts | 109° |
| 2026-04-23 18:06 | 28.48414 | -16.34244 | 2049 ft | 19 kts | 110° |
| 2026-04-23 18:07 | 28.48364 | -16.34098 | 2044 ft | 20 kts | 111° |
| 2026-04-23 18:07 | 28.48351 | -16.34059 | 2042 ft | 21 kts | 111° |
| 2026-04-23 18:07 | 28.48339 | -16.34023 | 2042 ft | 21 kts | 110° |
| 2026-04-23 18:07 | 28.48288 | -16.33868 | 2040 ft | 20 kts | 111° |
| 2026-04-23 18:08 | 28.48238 | -16.33719 | 2037 ft | 20 kts | 110° |
| 2026-04-23 18:08 | 28.48190 | -16.33577 | 2032 ft | 19 kts | 111° |
| 2026-04-23 18:08 | 28.48145 | -16.33438 | 2035 ft | 19 kts | 110° |
| 2026-04-23 18:08 | 28.48099 | -16.33297 | 2031 ft | 19 kts | 110° |
| 2026-04-23 18:09 | 28.48049 | -16.33151 | 2023 ft | 21 kts | 112° |
| 2026-04-23 18:09 | 28.48042 | -16.33134 | 2019 ft | 21 kts | 111° |
| 2026-04-23 18:09 | 28.48039 | -16.33125 | 2017 ft | 21 kts | 111° |
| 2026-04-23 18:10 | 28.47989 | -16.32969 | 2016 ft | 21 kts | 110° |
| 2026-04-23 18:10 | 28.47939 | -16.32818 | 2012 ft | 20 kts | 111° |
| 2026-04-23 18:10 | 28.47892 | -16.32678 | 2011 ft | 18 kts | 110° |
| 2026-04-23 18:10 | 28.47826 | -16.32556 | 2010 ft | 18 kts | 143° |
| 2026-04-23 18:11 | 28.47742 | -16.32549 | 2011 ft | 10 kts | 242° |
| 2026-04-23 18:11 | 28.47752 | -16.32603 | 2013 ft | 18 kts | 288° |
| 2026-04-23 18:11 | 28.47870 | -16.32961 | 2018 ft | 76 kts | 291° |
| 2026-04-23 18:11 | 28.48112 | -16.33690 | 2078 ft | 115 kts | 292° |
| 2026-04-23 18:12 | 28.48378 | -16.34553 | 2526 ft | 120 kts | 295° |
| 2026-04-23 18:12 | 28.48693 | -16.35416 | 3142 ft | 113 kts | 296° |
| 2026-04-23 18:12 | 28.49052 | -16.36294 | 3271 ft | 136 kts | 295° |
| 2026-04-23 18:12 | 28.49418 | -16.37403 | 3324 ft | 162 kts | 290° |
| 2026-04-23 18:13 | 28.49799 | -16.38670 | 3542 ft | 174 kts | 291° |
| 2026-04-23 18:13 | 28.50198 | -16.39971 | 3969 ft | 175 kts | 290° |
| 2026-04-23 18:13 | 28.50606 | -16.41283 | 4444 ft | 176 kts | 289° |
| 2026-04-23 18:13 | 28.51020 | -16.42581 | 4937 ft | 174 kts | 290° |
| 2026-04-23 18:14 | 28.51439 | -16.43870 | 5334 ft | 174 kts | 290° |
| 2026-04-23 18:14 | 28.51863 | -16.45160 | 5689 ft | 175 kts | 291° |
| 2026-04-23 18:14 | 28.52617 | -16.46228 | 5970 ft | 179 kts | 332° |
| 2026-04-23 18:14 | 28.53847 | -16.46300 | 6319 ft | 186 kts | 19° |
| 2026-04-23 18:15 | 28.54790 | -16.45314 | 6633 ft | 195 kts | 63° |
| 2026-04-23 18:15 | 28.54913 | -16.43784 | 6938 ft | 201 kts | 106° |
| 2026-04-23 18:15 | 28.54164 | -16.42463 | 7243 ft | 200 kts | 133° |
| 2026-04-23 18:15 | 28.53520 | -16.41068 | 7479 ft | 202 kts | 106° |
| 2026-04-23 18:16 | 28.53139 | -16.39515 | 7759 ft | 205 kts | 105° |
| 2026-04-23 18:16 | 28.52845 | -16.37916 | 8045 ft | 208 kts | 97° |
| 2026-04-23 18:16 | 28.52726 | -16.36252 | 8309 ft | 212 kts | 90° |
| 2026-04-23 18:17 | 28.52932 | -16.32914 | 8926 ft | 217 kts | 81° |
| 2026-04-23 18:17 | 28.53154 | -16.31158 | 8958 ft | 232 kts | 80° |
| 2026-04-23 18:17 | 28.53390 | -16.29298 | 8977 ft | 243 kts | 80° |
| 2026-04-23 18:17 | 28.53450 | -16.27357 | 8982 ft | 251 kts | 100° |
| 2026-04-23 18:18 | 28.52890 | -16.25457 | 8970 ft | 256 kts | 114° |
| 2026-04-23 18:18 | 28.52057 | -16.23646 | 9010 ft | 262 kts | 122° |
| 2026-04-23 18:18 | 28.51063 | -16.21881 | 9010 ft | 268 kts | 124° |
| 2026-04-23 18:18 | 28.50018 | -16.20109 | 9033 ft | 272 kts | 125° |
| 2026-04-23 18:19 | 28.48988 | -16.18289 | 9010 ft | 275 kts | 123° |
| 2026-04-23 18:19 | 28.47974 | -16.16443 | 8993 ft | 276 kts | 123° |
| 2026-04-23 18:19 | 28.46962 | -16.14586 | 8981 ft | 276 kts | 123° |
| 2026-04-23 18:19 | 28.45949 | -16.12729 | 8979 ft | 276 kts | 123° |
| 2026-04-23 18:20 | 28.44935 | -16.10871 | 8976 ft | 277 kts | 123° |
| 2026-04-23 18:20 | 28.43921 | -16.09014 | 8975 ft | 277 kts | 122° |
| 2026-04-23 18:20 | 28.42909 | -16.07153 | 8974 ft | 277 kts | 123° |
| 2026-04-23 18:20 | 28.41895 | -16.05294 | 8971 ft | 277 kts | 123° |
| 2026-04-23 18:21 | 28.40863 | -16.03451 | 8970 ft | 275 kts | 125° |
| 2026-04-23 18:21 | 28.39564 | -16.01908 | 8965 ft | 268 kts | 152° |
| 2026-04-23 18:21 | 28.37954 | -16.00962 | 8960 ft | 263 kts | 137° |
| 2026-04-23 18:21 | 28.37132 | -15.99272 | 9406 ft | 235 kts | 117° |
| 2026-04-23 18:22 | 28.36421 | -15.97467 | 9096 ft | 259 kts | 109° |
| 2026-04-23 18:22 | 28.35719 | -15.95580 | 9028 ft | 263 kts | 122° |
| 2026-04-23 18:22 | 28.34674 | -15.93849 | 8996 ft | 269 kts | 127° |
| 2026-04-23 18:22 | 28.33569 | -15.92119 | 8980 ft | 272 kts | 127° |
| 2026-04-23 18:23 | 28.32849 | -15.90948 | 8966 ft | 274 kts | 125° |
| 2026-04-23 18:23 | 28.30538 | -15.86590 | 8957 ft | 276 kts | 121° |
| 2026-04-23 18:24 | 28.28605 | -15.82849 | 8956 ft | 277 kts | 122° |
| 2026-04-23 18:24 | 28.27622 | -15.80970 | 8956 ft | 277 kts | 121° |
| 2026-04-23 18:24 | 28.26641 | -15.79091 | 8957 ft | 277 kts | 121° |
| 2026-04-23 18:25 | 28.24678 | -15.75332 | 8949 ft | 277 kts | 121° |
| 2026-04-23 18:25 | 28.23696 | -15.73450 | 8950 ft | 277 kts | 121° |
| 2026-04-23 18:25 | 28.22713 | -15.71570 | 8951 ft | 277 kts | 121° |
| 2026-04-23 18:25 | 28.21730 | -15.69690 | 8951 ft | 277 kts | 121° |
| 2026-04-23 18:26 | 28.20746 | -15.67811 | 8947 ft | 277 kts | 121° |
| 2026-04-23 18:26 | 28.19762 | -15.65932 | 8945 ft | 277 kts | 121° |
| 2026-04-23 18:26 | 28.18781 | -15.64058 | 8939 ft | 276 kts | 122° |
| 2026-04-23 18:26 | 28.17803 | -15.62192 | 8940 ft | 275 kts | 122° |
| 2026-04-23 18:27 | 28.16828 | -15.60331 | 8943 ft | 274 kts | 122° |
| 2026-04-23 18:27 | 28.15853 | -15.58475 | 8943 ft | 274 kts | 122° |
| 2026-04-23 18:27 | 28.14878 | -15.56615 | 8943 ft | 275 kts | 122° |
| 2026-04-23 18:27 | 28.13899 | -15.54754 | 8943 ft | 275 kts | 122° |
| 2026-04-23 18:28 | 28.12924 | -15.52890 | 8944 ft | 275 kts | 122° |
| 2026-04-23 18:28 | 28.11944 | -15.51028 | 8938 ft | 275 kts | 122° |
| 2026-04-23 18:28 | 28.10970 | -15.49173 | 8940 ft | 273 kts | 122° |
| 2026-04-23 18:28 | 28.09998 | -15.47323 | 8955 ft | 274 kts | 122° |
| 2026-04-23 18:29 | 28.09030 | -15.45484 | 9022 ft | 271 kts | 122° |
| 2026-04-23 18:29 | 28.08063 | -15.43650 | 9044 ft | 271 kts | 122° |
| 2026-04-23 18:29 | 28.06997 | -15.41926 | 9058 ft | 267 kts | 134° |
| 2026-04-23 18:29 | 28.05675 | -15.40436 | 9066 ft | 269 kts | 139° |
| 2026-04-23 18:30 | 28.04297 | -15.39004 | 9073 ft | 269 kts | 140° |
| 2026-04-23 18:30 | 28.02851 | -15.37681 | 8890 ft | 271 kts | 151° |
| 2026-04-23 18:30 | 28.01165 | -15.36662 | 8144 ft | 276 kts | 155° |
| 2026-04-23 18:30 | 27.99509 | -15.35765 | 7415 ft | 256 kts | 157° |
| 2026-04-23 18:31 | 27.97920 | -15.34939 | 6695 ft | 247 kts | 157° |
| 2026-04-23 18:31 | 27.96369 | -15.34163 | 5944 ft | 241 kts | 157° |
| 2026-04-23 18:31 | 27.94847 | -15.33411 | 5191 ft | 235 kts | 157° |
| 2026-04-23 18:31 | 27.93366 | -15.32683 | 4433 ft | 230 kts | 157° |
| 2026-04-23 18:32 | 27.91910 | -15.31983 | 3681 ft | 223 kts | 159° |
| 2026-04-23 18:32 | 27.90417 | -15.31800 | 2928 ft | 218 kts | 195° |
| 2026-04-23 18:32 | 27.89167 | -15.32670 | 2265 ft | 210 kts | 237° |
| 2026-04-23 18:32 | 27.88684 | -15.34069 | 2024 ft | 178 kts | 263° |
| 2026-04-23 18:33 | 27.88460 | -15.35378 | 1808 ft | 165 kts | 264° |
| 2026-04-23 18:33 | 27.88250 | -15.36610 | 1686 ft | 153 kts | 265° |
| 2026-04-23 18:33 | 27.88368 | -15.37625 | 1568 ft | 116 kts | 311° |
| 2026-04-23 18:33 | 27.88937 | -15.38206 | 1175 ft | 109 kts | 329° |
| 2026-04-23 18:34 | 27.89609 | -15.38681 | 730 ft | 115 kts | 333° |
| 2026-04-23 18:34 | 27.90236 | -15.39153 | 566 ft | 103 kts | 334° |
| 2026-04-23 18:34 | 27.90888 | -15.39542 | 408 ft | 109 kts | 349° |
| 2026-04-23 18:34 | 27.91609 | -15.39352 | 226 ft | 107 kts | 21° |
| 2026-04-23 18:35 | 27.92258 | -15.39070 | 71 ft | 90 kts | 22° |
| 2026-04-23 18:35 | 27.92769 | -15.38844 | 61 ft | 69 kts | 21° |
| 2026-04-23 18:35 | 27.93152 | -15.38715 | 58 ft | 34 kts | 354° |
| 2026-04-23 18:35 | 27.93238 | -15.38732 | 65 ft | 14 kts | 350° |
| 2026-04-23 18:36 | 27.93362 | -15.38753 | 71 ft | 17 kts | 351° |
| 2026-04-23 18:36 | 27.93492 | -15.38716 | 70 ft | 18 kts | 21° |
| 2026-04-23 18:36 | 27.93592 | -15.38672 | 74 ft | 18 kts | 21° |
| 2026-04-23 18:36 | 27.93690 | -15.38630 | 67 ft | 10 kts | 11° |
| 2026-04-23 18:37 | 27.93718 | -15.38671 | 71 ft | 9 kts | 291° |
| 2026-04-23 18:37 | 27.93729 | -15.38703 | 71 ft | 0 kts | 292° |